Time;durP1;ratioP1;P1;durP2;ratioP2;P2;SDS_P1;SDS_P2;PMS_P1;PMS_P2;Temp;Humidity;BMP_temperature;BMP_pressure;BME280_temperature;BME280_humidity;BME280_pressure;Samples;Min_cycle;Max_cycle;Signal;HPM_P1;HPM_P2
2023/03/28 00:00:29;;;;;;;18.25;2.58;;;2.30;99.90;;;;;;5027319;28;20051;-60
2023/03/28 00:02:55;;;;;;;14.38;2.78;;;2.20;99.90;;;;;;5011149;28;20401;-60
2023/03/28 00:05:22;;;;;;;11.70;2.40;;;2.20;99.90;;;;;;5007423;28;20131;-60
2023/03/28 00:07:52;;;;;;;9.98;1.95;;;2.20;99.90;;;;;;5025490;28;20583;-60
2023/03/28 00:10:19;;;;;;;18.20;2.53;;;2.10;99.90;;;;;;5029735;28;20525;-60
2023/03/28 00:12:45;;;;;;;12.90;2.42;;;2.20;99.90;;;;;;5021410;28;20049;-60
2023/03/28 00:15:11;;;;;;;10.52;2.03;;;2.20;99.90;;;;;;5029895;28;20172;-60
2023/03/28 00:17:40;;;;;;;9.80;2.38;;;2.10;99.90;;;;;;5009622;28;20073;-60
2023/03/28 00:20:11;;;;;;;14.68;2.63;;;2.20;99.90;;;;;;5032090;28;20077;-60
2023/03/28 00:22:38;;;;;;;12.57;2.25;;;2.10;99.90;;;;;;5011542;28;20041;-60
2023/03/28 00:25:05;;;;;;;9.15;1.70;;;2.10;99.90;;;;;;5012210;28;20607;-60
2023/03/28 00:27:32;;;;;;;10.57;2.60;;;2.10;99.90;;;;;;5014940;28;20102;-59
2023/03/28 00:29:59;;;;;;;16.77;2.83;;;2.00;99.90;;;;;;5022302;28;20574;-60
2023/03/28 00:32:25;;;;;;;13.48;2.75;;;2.00;99.90;;;;;;5002946;28;20136;-59
2023/03/28 00:34:51;;;;;;;12.85;2.58;;;2.00;99.90;;;;;;5025539;28;20064;-59
2023/03/28 00:37:17;;;;;;;13.77;2.25;;;2.00;99.90;;;;;;5023025;28;20046;-60
2023/03/28 00:39:48;;;;;;;8.23;1.98;;;2.00;99.90;;;;;;5003788;28;20149;-60
2023/03/28 00:42:16;;;;;;;12.63;2.33;;;2.00;99.90;;;;;;5027725;28;20488;-60
2023/03/28 00:44:47;;;;;;;13.32;2.50;;;2.00;99.90;;;;;;5022871;28;20053;-60
2023/03/28 00:47:32;;;;;;;18.63;2.30;;;2.00;99.90;;;;;;5021098;28;20069;-60
2023/03/28 00:50:22;;;;;;;11.88;2.55;;;2.00;99.90;;;;;;4997452;28;20045;-60
2023/03/28 00:52:57;;;;;;;13.63;2.47;;;2.00;99.90;;;;;;4986553;28;20049;-60
2023/03/28 00:55:29;;;;;;;8.23;2.20;;;2.00;99.90;;;;;;5006458;28;20520;-59
2023/03/28 00:57:55;;;;;;;10.95;2.58;;;1.90;99.90;;;;;;5018347;28;20042;-60
2023/03/28 01:00:22;;;;;;;13.57;1.98;;;1.90;99.90;;;;;;5023114;28;20111;-59
2023/03/28 01:02:52;;;;;;;12.80;2.38;;;1.90;99.90;;;;;;5020476;28;20040;-61
2023/03/28 01:05:27;;;;;;;11.70;2.05;;;1.90;99.90;;;;;;4999450;28;20068;-60
2023/03/28 01:08:02;;;;;;;13.85;2.60;;;1.90;99.90;;;;;;5021398;28;20072;-60
2023/03/28 01:10:30;;;;;;;13.77;2.42;;;1.80;99.90;;;;;;5002112;28;20106;-60
2023/03/28 01:12:57;;;;;;;15.68;2.40;;;1.80;99.90;;;;;;4998170;28;20058;-60
2023/03/28 01:15:23;;;;;;;15.57;2.40;;;1.80;99.90;;;;;;5017375;28;20051;-60
2023/03/28 01:17:49;;;;;;;11.43;2.28;;;1.70;99.90;;;;;;5017478;28;20041;-60
2023/03/28 01:20:25;;;;;;;10.13;2.33;;;1.80;99.90;;;;;;5001075;28;20045;-60
2023/03/28 01:23:03;;;;;;;11.90;2.20;;;1.70;99.90;;;;;;5004464;28;20049;-60
2023/03/28 01:26:03;;;;;;;6.55;1.85;;;1.70;99.90;;;;;;5022911;28;20056;-60
2023/03/28 01:28:50;;;;;;;15.10;2.35;;;1.60;99.90;;;;;;5023120;28;20057;-60
2023/03/28 01:31:53;;;;;;;12.93;2.17;;;1.60;99.90;;;;;;4998114;28;20049;-61
2023/03/28 01:34:48;;;;;;;14.70;2.47;;;1.60;99.90;;;;;;4987203;28;20059;-60
2023/03/28 01:37:47;;;;;;;10.32;1.83;;;1.60;99.90;;;;;;5004527;28;20135;-60
2023/03/28 01:40:52;;;;;;;17.83;2.03;;;1.50;99.90;;;;;;5021617;28;20041;-59
2023/03/28 01:43:46;;;;;;;9.95;2.17;;;1.50;99.90;;;;;;4970762;28;20056;-60
2023/03/28 01:46:21;;;;;;;15.45;2.10;;;1.50;99.90;;;;;;5022072;28;20041;-59
2023/03/28 01:48:59;;;;;;;11.30;1.85;;;1.50;99.90;;;;;;5024712;28;20382;-60
2023/03/28 01:51:58;;;;;;;8.90;2.63;;;1.40;99.90;;;;;;5020056;28;20061;-59
2023/03/28 01:54:54;;;;;;;13.48;2.35;;;1.50;99.90;;;;;;5002030;28;20127;-59
2023/03/28 01:57:32;;;;;;;10.23;2.10;;;1.40;99.90;;;;;;5025780;28;20049;-60
2023/03/28 02:00:12;;;;;;;10.43;1.98;;;1.40;99.90;;;;;;5024213;28;20044;-60
2023/03/28 02:02:48;;;;;;;9.75;2.33;;;1.40;99.90;;;;;;5020674;28;20073;-60
2023/03/28 02:05:16;;;;;;;11.88;2.08;;;1.40;99.90;;;;;;5022443;28;20128;-60
2023/03/28 02:07:43;;;;;;;15.65;2.45;;;1.30;99.90;;;;;;5018956;28;20049;-60
2023/03/28 02:10:11;;;;;;;9.25;1.80;;;1.30;99.90;;;;;;4994499;28;20052;-60
2023/03/28 02:12:44;;;;;;;19.88;2.17;;;1.30;99.90;;;;;;5017675;28;20048;-60
2023/03/28 02:15:15;;;;;;;6.57;1.92;;;1.30;99.90;;;;;;5001929;28;20049;-60
2023/03/28 02:17:46;;;;;;;11.57;1.90;;;1.30;99.90;;;;;;5004274;28;20129;-59
2023/03/28 02:20:15;;;;;;;10.32;1.83;;;1.20;99.90;;;;;;5005877;28;20116;-59
2023/03/28 02:22:48;;;;;;;6.93;1.80;;;1.30;99.90;;;;;;5005510;28;20045;-60
2023/03/28 02:25:14;;;;;;;;;;;1.20;99.90;;;;;;5026034;28;20348;-60
2023/03/28 02:27:43;;;;;;;6.80;1.58;;;1.10;99.90;;;;;;5007412;28;19924;-59
2023/03/28 02:30:09;;;;;;;10.60;2.10;;;1.00;99.90;;;;;;5019115;28;20056;-60
2023/03/28 02:32:36;;;;;;;12.27;1.83;;;1.00;99.90;;;;;;4983471;28;21256;-60
2023/03/28 02:35:05;;;;;;;9.30;2.08;;;1.00;99.90;;;;;;5016947;28;20045;-60
2023/03/28 02:37:56;;;;;;;6.57;1.90;;;0.90;99.90;;;;;;5018644;28;20056;-60
2023/03/28 02:40:22;;;;;;;13.95;1.85;;;0.90;99.90;;;;;;5001935;28;20174;-60
2023/03/28 02:43:12;;;;;;;13.27;2.05;;;0.80;99.90;;;;;;5002517;28;20054;-60
2023/03/28 02:46:00;;;;;;;11.77;2.30;;;0.80;99.90;;;;;;5015951;28;20057;-60
2023/03/28 02:49:03;;;;;;;10.50;2.60;;;0.80;99.90;;;;;;5016415;28;20050;-61
2023/03/28 02:51:39;;;;;;;;;;;0.70;99.90;;;;;;5013449;28;20423;-60
2023/03/28 02:54:23;;;;;;;11.98;2.10;;;0.70;99.90;;;;;;4995082;28;19928;-60
2023/03/28 02:57:00;;;;;;;12.27;2.28;;;0.70;99.90;;;;;;4995474;28;20120;-60
2023/03/28 02:59:43;;;;;;;8.75;2.20;;;0.70;99.90;;;;;;4995497;28;20041;-60
2023/03/28 03:02:09;;;;;;;;;;;0.60;99.90;;;;;;5012466;28;20104;-59
2023/03/28 03:04:34;;;;;;;12.40;2.20;;;0.70;99.90;;;;;;4998855;28;20004;-60
2023/03/28 03:07:01;;;;;;;8.88;1.85;;;0.70;99.90;;;;;;4999497;28;20053;-60
2023/03/28 03:09:27;;;;;;;12.95;2.00;;;0.70;99.90;;;;;;4999638;28;20053;-61
2023/03/28 03:11:53;;;;;;;12.70;2.17;;;0.60;99.90;;;;;;5014148;28;20074;-61
2023/03/28 03:14:19;;;;;;;13.02;2.50;;;0.60;99.90;;;;;;4998282;28;20049;-60
2023/03/28 03:16:47;;;;;;;14.65;2.20;;;0.60;99.90;;;;;;5015218;28;20056;-60
2023/03/28 03:19:13;;;;;;;8.85;1.80;;;0.60;99.90;;;;;;5015502;28;21080;-60
2023/03/28 03:21:40;;;;;;;7.38;1.95;;;0.60;99.90;;;;;;4995852;28;20050;-60
2023/03/28 03:24:08;;;;;;;10.10;2.08;;;0.60;99.90;;;;;;4999780;28;20065;-61
2023/03/28 03:26:34;;;;;;;12.68;2.45;;;0.60;99.90;;;;;;4980649;28;20381;-61
2023/03/28 03:29:01;;;;;;;11.07;2.25;;;0.60;99.90;;;;;;4993589;28;20372;-60
2023/03/28 03:31:27;;;;;;;10.40;2.33;;;0.60;99.90;;;;;;4997470;28;20142;-60
2023/03/28 03:33:54;;;;;;;10.93;2.08;;;0.50;99.90;;;;;;4996883;28;20487;-60
2023/03/28 03:36:20;;;;;;;9.02;2.10;;;0.50;99.90;;;;;;4996128;28;20069;-60
2023/03/28 03:38:46;;;;;;;6.60;1.88;;;0.50;99.90;;;;;;4977985;28;20045;-60
2023/03/28 03:41:12;;;;;;;11.55;2.42;;;0.40;99.90;;;;;;4995244;28;20060;-60
2023/03/28 03:43:38;;;;;;;9.30;2.05;;;0.40;99.90;;;;;;4977907;28;20757;-59
2023/03/28 03:46:04;;;;;;;12.93;2.35;;;0.40;99.90;;;;;;5000270;28;20048;-61
2023/03/28 03:48:30;;;;;;;11.65;2.08;;;0.40;99.90;;;;;;4995717;28;20050;-60
2023/03/28 03:50:55;;;;;;;12.32;2.47;;;0.40;99.90;;;;;;4984801;28;20194;-60
2023/03/28 03:53:21;;;;;;;13.18;2.42;;;0.30;99.90;;;;;;4993701;28;20046;-60
2023/03/28 03:55:47;;;;;;;7.25;1.90;;;0.30;99.90;;;;;;4996846;28;20329;-60
2023/03/28 03:58:13;;;;;;;14.18;2.35;;;0.30;99.90;;;;;;4996137;28;20050;-60
2023/03/28 04:00:38;;;;;;;7.57;2.28;;;0.30;99.90;;;;;;4993100;28;20056;-60
2023/03/28 04:03:05;;;;;;;10.75;2.40;;;0.30;99.90;;;;;;5006787;28;20057;-60
2023/03/28 04:05:31;;;;;;;12.93;3.58;;;0.40;99.90;;;;;;4972087;28;20053;-60
2023/03/28 04:07:58;;;;;;;12.13;2.03;;;0.20;99.90;;;;;;4994272;28;20551;-60
2023/03/28 04:10:24;;;;;;;9.93;2.40;;;0.20;99.90;;;;;;4995687;28;20135;-60
2023/03/28 04:12:49;;;;;;;7.57;2.08;;;0.20;99.90;;;;;;4996034;28;20108;-59
2023/03/28 04:15:15;;;;;;;15.00;2.58;;;0.10;99.90;;;;;;5001177;28;20058;-60
2023/03/28 04:17:43;;;;;;;13.98;2.60;;;0.10;99.90;;;;;;4989152;28;20053;-60
2023/03/28 04:20:12;;;;;;;7.43;2.03;;;0.10;99.90;;;;;;5010393;28;20064;-60
2023/03/28 04:22:39;;;;;;;14.38;2.75;;;0.10;99.90;;;;;;5017583;28;20091;-60
2023/03/28 04:25:06;;;;;;;10.68;2.50;;;0.10;99.90;;;;;;5004074;28;21017;-60
2023/03/28 04:27:32;;;;;;;9.13;2.28;;;0.10;99.90;;;;;;5007566;28;20047;-60
2023/03/28 04:30:00;;;;;;;10.10;2.03;;;0.10;99.90;;;;;;5004915;28;20057;-61
2023/03/28 04:32:26;;;;;;;8.70;2.25;;;0.00;99.90;;;;;;4999903;28;20127;-60
2023/03/28 04:34:52;;;;;;;11.85;2.40;;;0.00;99.90;;;;;;5018304;28;20136;-60
2023/03/28 04:37:18;;;;;;;8.93;2.08;;;0.10;99.90;;;;;;5001430;28;20090;-59
2023/03/28 04:39:46;;;;;;;11.88;2.60;;;0.00;99.90;;;;;;5012951;28;20128;-59
2023/03/28 04:42:15;;;;;;;15.38;2.72;;;0.00;99.90;;;;;;4999472;28;20581;-60
2023/03/28 04:44:42;;;;;;;12.30;2.10;;;0.00;99.90;;;;;;4998662;28;20087;-59
2023/03/28 04:47:10;;;;;;;13.82;1.90;;;0.00;99.90;;;;;;4998615;28;20107;-60
2023/03/28 04:49:37;;;;;;;9.00;2.42;;;0.00;99.90;;;;;;5000176;28;20118;-60
2023/03/28 04:52:06;;;;;;;12.70;2.10;;;0.00;99.90;;;;;;4995854;28;20048;-60
2023/03/28 04:54:32;;;;;;;10.60;2.35;;;-0.10;99.90;;;;;;4974347;28;20132;-59
2023/03/28 04:56:58;;;;;;;11.57;2.60;;;-0.10;99.90;;;;;;5019770;28;20823;-60
2023/03/28 04:59:23;;;;;;;8.40;1.95;;;-0.10;99.90;;;;;;5017883;28;20113;-60
2023/03/28 05:01:49;;;;;;;9.20;2.50;;;-0.10;99.90;;;;;;4980521;28;20045;-60
2023/03/28 05:04:20;;;;;;;12.95;2.28;;;-0.10;99.90;;;;;;5018524;28;20886;-60
2023/03/28 05:06:48;;;;;;;15.15;2.40;;;-0.10;99.90;;;;;;5000608;28;20788;-61
2023/03/28 05:09:15;;;;;;;11.73;2.40;;;-0.10;99.90;;;;;;4994394;28;20160;-60
2023/03/28 05:11:41;;;;;;;14.07;3.03;;;-0.10;99.90;;;;;;4973332;28;20478;-60
2023/03/28 05:14:07;;;;;;;12.85;2.45;;;-0.10;99.90;;;;;;4991414;28;20504;-60
2023/03/28 05:16:33;;;;;;;10.43;2.55;;;-0.10;99.90;;;;;;4999879;28;20041;-59
2023/03/28 05:19:00;;;;;;;14.38;2.78;;;-0.10;99.90;;;;;;5019985;28;20048;-60
2023/03/28 05:21:26;;;;;;;14.88;2.50;;;-0.10;99.90;;;;;;5011394;28;20496;-60
2023/03/28 05:23:52;;;;;;;20.63;3.25;;;-0.10;99.90;;;;;;4999270;28;20127;-61
2023/03/28 05:26:18;;;;;;;12.15;2.67;;;-0.10;99.90;;;;;;5011870;28;20046;-60
2023/03/28 05:28:43;;;;;;;24.42;2.70;;;0.00;99.90;;;;;;4992744;28;20060;-60
2023/03/28 05:31:10;;;;;;;21.63;3.20;;;0.00;99.90;;;;;;4988778;28;20057;-60
2023/03/28 05:33:36;;;;;;;11.38;2.78;;;0.10;99.90;;;;;;4989571;28;20578;-61
2023/03/28 05:36:02;;;;;;;16.08;3.13;;;0.10;99.90;;;;;;5012657;28;20088;-61
2023/03/28 05:38:30;;;;;;;15.77;3.10;;;0.10;99.90;;;;;;4995596;28;20063;-61
2023/03/28 05:40:57;;;;;;;13.18;2.70;;;0.10;99.90;;;;;;5016803;28;20057;-60
2023/03/28 05:43:23;;;;;;;12.63;3.30;;;0.20;99.90;;;;;;5000285;28;20049;-60
2023/03/28 05:45:49;;;;;;;16.77;2.70;;;0.20;99.90;;;;;;4996900;28;20581;-60
2023/03/28 05:48:16;;;;;;;17.60;3.05;;;0.20;99.90;;;;;;4996399;28;20050;-61
2023/03/28 05:50:43;;;;;;;20.30;2.95;;;0.30;99.90;;;;;;4990925;28;20055;-60
2023/03/28 05:53:09;;;;;;;17.17;3.25;;;0.30;99.90;;;;;;5017787;28;20084;-60
2023/03/28 05:55:35;;;;;;;17.42;3.15;;;0.40;99.90;;;;;;4981892;28;20056;-60
2023/03/28 05:58:02;;;;;;;21.73;4.03;;;0.50;99.90;;;;;;5002873;28;20049;-60
2023/03/28 06:00:28;;;;;;;12.57;2.78;;;0.50;99.90;;;;;;4993410;28;20073;-60
2023/03/28 06:02:54;;;;;;;16.05;3.17;;;0.50;99.90;;;;;;4981015;28;20053;-61
2023/03/28 06:05:20;;;;;;;15.35;3.75;;;0.60;99.90;;;;;;5004366;28;20049;-61
2023/03/28 06:07:46;;;;;;;25.00;3.13;;;0.60;99.90;;;;;;5003675;28;20837;-59
2023/03/28 06:10:13;;;;;;;17.58;3.70;;;0.70;99.90;;;;;;4994417;28;21133;-62
2023/03/28 06:12:39;;;;;;;14.70;3.63;;;0.80;99.90;;;;;;4986095;28;20037;-62
2023/03/28 06:15:06;;;;;;;14.65;3.55;;;0.80;99.90;;;;;;5000944;28;20149;-62
2023/03/28 06:17:32;;;;;;;16.02;3.75;;;0.90;99.90;;;;;;5006517;28;20044;-62
2023/03/28 06:19:57;;;;;;;16.73;2.92;;;1.00;99.90;;;;;;4983268;28;20053;-62
2023/03/28 06:22:24;;;;;;;15.30;2.85;;;1.10;99.90;;;;;;5007851;28;20694;-62
2023/03/28 06:24:50;;;;;;;12.13;3.15;;;1.10;99.90;;;;;;4997959;28;20046;-62
2023/03/28 06:27:15;;;;;;;17.70;3.90;;;1.20;99.90;;;;;;5007624;28;20484;-62
2023/03/28 06:29:41;;;;;;;13.20;3.03;;;1.20;99.90;;;;;;4989288;28;20054;-62
2023/03/28 06:32:07;;;;;;;15.45;2.95;;;1.40;99.90;;;;;;5007861;28;20050;-62
2023/03/28 06:34:33;;;;;;;15.82;3.03;;;1.40;99.90;;;;;;4994786;28;20116;-62
2023/03/28 06:37:00;;;;;;;11.88;2.63;;;1.50;99.90;;;;;;5027128;28;20041;-62
2023/03/28 06:39:27;;;;;;;12.90;2.85;;;1.50;99.90;;;;;;4978316;28;20128;-62
2023/03/28 06:41:53;;;;;;;12.02;2.33;;;1.60;99.90;;;;;;5012257;28;20096;-62
2023/03/28 06:44:18;;;;;;;9.82;3.13;;;1.70;99.90;;;;;;5005832;28;20281;-62
2023/03/28 06:46:44;;;;;;;21.98;3.30;;;1.70;99.90;;;;;;4994837;28;20045;-62
2023/03/28 06:49:10;;;;;;;14.25;3.55;;;1.70;99.90;;;;;;5026412;28;20061;-62
2023/03/28 06:51:36;;;;;;;12.35;3.28;;;1.70;99.90;;;;;;5004517;28;20041;-62
2023/03/28 06:54:01;;;;;;;15.85;3.67;;;1.70;99.90;;;;;;5010283;28;20046;-63
2023/03/28 06:56:27;;;;;;;18.63;3.05;;;1.70;99.90;;;;;;5006474;28;20053;-62
2023/03/28 06:58:53;;;;;;;14.13;2.63;;;1.70;99.90;;;;;;5025879;28;20081;-63
2023/03/28 07:01:19;;;;;;;13.77;3.17;;;1.80;99.90;;;;;;5025930;28;20713;-63
2023/03/28 07:03:45;;;;;;;10.43;2.33;;;1.70;99.90;;;;;;5007986;28;20919;-62
2023/03/28 07:06:11;;;;;;;15.60;3.05;;;1.80;99.90;;;;;;5028021;28;20065;-62
2023/03/28 07:08:37;;;;;;;18.02;2.63;;;1.80;99.90;;;;;;5004810;28;20045;-62
2023/03/28 07:11:04;;;;;;;13.13;3.17;;;1.80;99.90;;;;;;5005923;28;20143;-62
2023/03/28 07:13:30;;;;;;;12.85;3.00;;;1.90;99.90;;;;;;4987584;28;20054;-62
2023/03/28 07:16:01;;;;;;;18.92;3.20;;;1.90;99.90;;;;;;5006639;28;20041;-62
2023/03/28 07:18:27;;;;;;;12.88;2.70;;;2.00;99.90;;;;;;5002796;28;20543;-62
2023/03/28 07:20:53;;;;;;;12.15;3.50;;;2.00;99.90;;;;;;4986019;28;20054;-62
2023/03/28 07:23:20;;;;;;;15.68;2.92;;;2.10;99.90;;;;;;5009436;28;20050;-63
2023/03/28 07:25:46;;;;;;;14.98;2.88;;;2.20;99.90;;;;;;5013648;28;20073;-62
2023/03/28 07:28:11;;;;;;;10.60;2.58;;;2.20;99.90;;;;;;5024012;28;20598;-62
2023/03/28 07:30:37;;;;;;;10.73;2.30;;;2.40;99.90;;;;;;4978384;28;20121;-62
2023/03/28 07:33:03;;;;;;;10.77;2.95;;;2.40;99.90;;;;;;5011051;28;20104;-62
2023/03/28 07:35:29;;;;;;;15.45;3.00;;;2.50;99.90;;;;;;4961850;28;20073;-63
2023/03/28 07:37:55;;;;;;;9.63;2.30;;;2.60;99.90;;;;;;5011874;28;20045;-63
2023/03/28 07:40:20;;;;;;;16.45;2.65;;;2.80;99.90;;;;;;4994106;28;20037;-63
2023/03/28 07:42:48;;;;;;;12.40;2.45;;;2.80;99.90;;;;;;4994196;28;20042;-63
2023/03/28 07:45:14;;;;;;;7.90;2.35;;;2.90;99.90;;;;;;5009675;28;20045;-63
2023/03/28 07:47:40;;;;;;;8.55;2.33;;;3.10;99.90;;;;;;5011022;28;20408;-63
2023/03/28 07:50:07;;;;;;;11.43;2.45;;;3.20;99.90;;;;;;5010229;28;20457;-62
2023/03/28 07:52:33;;;;;;;9.95;2.53;;;3.30;99.90;;;;;;5014368;28;20049;-63
2023/03/28 07:54:58;;;;;;;11.70;2.65;;;3.40;99.90;;;;;;5029194;28;20460;-63
2023/03/28 07:57:24;;;;;;;10.70;2.42;;;3.50;99.90;;;;;;5007300;28;20038;-63
2023/03/28 07:59:50;;;;;;;12.73;2.47;;;3.70;99.90;;;;;;5011379;28;20104;-63
2023/03/28 08:02:16;;;;;;;5.70;2.10;;;3.90;99.90;;;;;;5011634;28;20061;-63
2023/03/28 08:04:42;;;;;;;8.35;2.38;;;4.00;99.90;;;;;;5013494;28;20504;-63
2023/03/28 08:07:09;;;;;;;8.88;2.28;;;4.10;99.90;;;;;;5011226;28;20049;-62
2023/03/28 08:09:35;;;;;;;11.13;2.60;;;4.40;99.90;;;;;;5011751;28;20056;-63
2023/03/28 08:12:01;;;;;;;7.95;2.00;;;4.40;99.90;;;;;;4983258;28;20420;-63
2023/03/28 08:14:27;;;;;;;8.32;2.58;;;4.60;99.90;;;;;;5003522;28;20076;-63
2023/03/28 08:16:52;;;;;;;9.15;2.35;;;4.70;99.90;;;;;;5012504;28;20042;-63
2023/03/28 08:19:18;;;;;;;7.82;2.15;;;4.90;99.90;;;;;;5028794;28;20058;-63
2023/03/28 08:21:44;;;;;;;10.43;2.08;;;5.10;99.90;;;;;;5011499;28;20515;-63
2023/03/28 08:24:10;;;;;;;9.13;2.03;;;5.30;99.90;;;;;;5007968;28;20124;-63
2023/03/28 08:26:39;;;;;;;10.00;1.70;;;5.50;99.90;;;;;;5011901;28;20076;-63
2023/03/28 08:29:05;;;;;;;7.13;1.73;;;5.70;99.90;;;;;;5015286;28;20061;-63
2023/03/28 08:31:31;;;;;;;8.63;1.27;;;5.90;99.90;;;;;;5016317;28;20077;-63
2023/03/28 08:33:57;;;;;;;6.10;1.60;;;5.90;99.90;;;;;;4993428;28;20064;-63
2023/03/28 08:36:26;;;;;;;10.68;1.48;;;5.90;99.90;;;;;;5027087;28;20148;-63
2023/03/28 08:38:53;;;;;;;9.13;1.58;;;5.90;99.90;;;;;;5027650;28;20045;-63
2023/03/28 08:41:40;;;;;;;4.38;1.30;;;5.90;99.90;;;;;;4994652;28;20045;-63
2023/03/28 08:44:31;;;;;;;8.32;2.00;;;5.90;99.90;;;;;;5013327;28;20037;-63
2023/03/28 08:47:03;;;;;;;4.50;1.20;;;6.00;99.90;;;;;;4995930;28;20516;-63
2023/03/28 08:49:33;;;;;;;6.55;1.25;;;6.00;99.90;;;;;;5023187;28;20053;-63
2023/03/28 08:52:01;;;;;;;3.80;1.40;;;6.10;99.90;;;;;;5011502;28;20050;-63
2023/03/28 08:54:37;;;;;;;7.35;1.60;;;6.10;99.90;;;;;;5012259;28;20058;-63
2023/03/28 08:57:05;;;;;;;4.10;1.25;;;6.20;99.90;;;;;;5012383;28;20042;-63
2023/03/28 08:59:39;;;;;;;3.72;1.35;;;6.20;99.90;;;;;;5028294;28;20123;-63
2023/03/28 09:02:20;;;;;;;9.07;1.50;;;6.20;99.90;;;;;;4996679;28;20052;-63
2023/03/28 09:04:46;;;;;;;6.57;1.50;;;6.30;99.90;;;;;;5013598;28;20056;-63
2023/03/28 09:07:35;;;;;;;7.10;1.75;;;6.30;99.90;;;;;;5008869;28;20053;-63
2023/03/28 09:10:22;;;;;;;7.60;1.58;;;6.40;99.90;;;;;;4977747;28;20124;-63
2023/03/28 09:12:55;;;;;;;7.40;1.40;;;6.40;99.90;;;;;;5009140;28;20049;-63
2023/03/28 09:15:41;;;;;;;5.22;1.20;;;6.50;99.90;;;;;;5006187;28;20570;-63
2023/03/28 09:18:18;;;;;;;9.48;1.60;;;6.50;99.90;;;;;;5007190;28;20041;-63
2023/03/28 09:21:12;;;;;;;4.78;1.48;;;6.60;99.90;;;;;;5009579;28;20085;-63
2023/03/28 09:23:59;;;;;;;9.73;1.42;;;6.60;99.90;;;;;;5014415;28;20103;-63
2023/03/28 09:26:41;;;;;;;7.40;1.60;;;6.70;99.90;;;;;;5008948;28;20116;-63
2023/03/28 09:29:12;;;;;;;6.82;1.73;;;6.80;99.90;;;;;;5010555;28;20046;-63
2023/03/28 09:31:49;;;;;;;6.82;1.35;;;6.90;99.90;;;;;;4994142;28;20050;-63
2023/03/28 09:34:26;;;;;;;5.22;1.83;;;7.00;99.90;;;;;;5010580;28;20512;-63
2023/03/28 09:37:01;;;;;;;7.57;1.65;;;7.10;99.90;;;;;;5010771;28;20056;-63
2023/03/28 09:39:47;;;;;;;4.43;1.10;;;7.10;99.90;;;;;;5026450;28;20145;-63
2023/03/28 09:42:50;;;;;;;6.65;1.25;;;7.10;99.90;;;;;;5005771;28;20428;-63
2023/03/28 09:45:42;;;;;;;6.97;1.37;;;7.10;99.90;;;;;;5025522;28;20382;-63
2023/03/28 09:48:17;;;;;;;5.57;1.20;;;7.10;99.90;;;;;;5020688;28;20288;-63
2023/03/28 09:50:43;;;;;;;6.80;1.20;;;7.20;99.90;;;;;;5011201;28;20041;-63
2023/03/28 09:53:20;;;;;;;4.55;1.30;;;7.30;99.90;;;;;;4985759;28;20054;-63
2023/03/28 09:55:46;;;;;;;5.45;1.50;;;7.40;99.90;;;;;;5011330;28;20042;-63
2023/03/28 09:58:16;;;;;;;5.85;1.60;;;7.40;99.90;;;;;;5027004;28;20518;-63
2023/03/28 10:00:50;;;;;;;7.72;1.58;;;7.50;99.90;;;;;;4986621;28;20042;-63
2023/03/28 10:03:22;;;;;;;5.57;1.27;;;7.60;99.90;;;;;;5009778;28;20045;-63
2023/03/28 10:05:50;;;;;;;4.05;1.10;;;7.70;99.90;;;;;;5009214;28;20076;-63
2023/03/28 10:08:32;;;;;;;5.22;1.17;;;7.80;99.90;;;;;;5030975;28;20477;-63
2023/03/28 10:11:12;;;;;;;4.25;1.00;;;7.90;99.20;;;;;;5010179;28;20053;-63
2023/03/28 10:13:46;;;;;;;6.45;1.25;;;8.10;99.20;;;;;;5010430;28;20045;-63
2023/03/28 10:16:14;;;;;;;2.65;1.40;;;8.30;98.90;;;;;;4994104;28;20057;-63
2023/03/28 10:18:42;;;;;;;4.85;1.35;;;8.30;98.30;;;;;;5008974;28;20045;-63
2023/03/28 10:21:17;;;;;;;4.65;1.33;;;8.30;98.00;;;;;;5014898;28;20132;-63
2023/03/28 10:24:02;;;;;;;5.78;1.20;;;8.30;97.60;;;;;;5014543;28;20049;-63
2023/03/28 10:26:28;;;;;;;6.13;1.60;;;8.20;98.00;;;;;;5013778;28;20095;-63
2023/03/28 10:28:59;;;;;;;8.38;1.63;;;8.10;98.30;;;;;;4994435;28;20045;-63
2023/03/28 10:31:28;;;;;;;5.78;1.45;;;8.10;98.20;;;;;;5030524;28;20136;-63
2023/03/28 10:33:56;;;;;;;6.22;1.63;;;8.30;98.60;;;;;;4970369;28;20049;-63
2023/03/28 10:36:31;;;;;;;7.13;1.52;;;8.40;98.90;;;;;;5009197;28;20073;-63
2023/03/28 10:38:58;;;;;;;4.85;1.30;;;8.70;98.70;;;;;;5011722;28;20072;-63
2023/03/28 10:41:26;;;;;;;5.28;1.50;;;8.90;98.20;;;;;;5016788;28;20069;-63
2023/03/28 10:43:52;;;;;;;3.50;1.27;;;9.10;97.50;;;;;;5008345;28;20119;-63
2023/03/28 10:46:31;;;;;;;5.97;1.60;;;9.20;96.40;;;;;;5026055;28;20048;-63
2023/03/28 10:49:06;;;;;;;3.70;1.38;;;9.40;96.00;;;;;;5013272;28;20148;-63
2023/03/28 10:51:35;;;;;;;4.75;1.60;;;9.60;94.70;;;;;;4992377;28;20052;-63
2023/03/28 10:54:04;;;;;;;5.93;1.88;;;9.80;94.00;;;;;;5007697;28;20116;-63
2023/03/28 10:56:41;;;;;;;7.05;1.52;;;9.80;93.60;;;;;;5016384;28;20392;-63
2023/03/28 10:59:39;;;;;;;4.80;1.48;;;9.90;93.70;;;;;;5009024;28;20558;-63
2023/03/28 11:02:16;;;;;;;5.90;1.80;;;9.90;93.90;;;;;;4996439;28;20081;-63
2023/03/28 11:05:01;;;;;;;4.93;1.67;;;9.90;93.80;;;;;;5013728;28;20044;-63
2023/03/28 11:07:49;;;;;;;5.45;1.80;;;9.80;93.80;;;;;;4997898;28;20045;-63
2023/03/28 11:10:40;;;;;;;6.10;2.63;;;9.70;93.80;;;;;;5007759;28;20466;-63
2023/03/28 11:13:24;;;;;;;7.47;2.20;;;9.60;94.00;;;;;;5028065;28;20132;-63
2023/03/28 11:16:14;;;;;;;10.27;2.10;;;9.50;94.10;;;;;;5006770;28;20704;-63
2023/03/28 11:18:43;;;;;;;6.90;2.20;;;9.30;93.90;;;;;;5025951;28;20045;-63
2023/03/28 11:21:23;;;;;;;5.50;2.40;;;9.20;94.40;;;;;;5014107;28;20052;-63
2023/03/28 11:23:49;;;;;;;6.05;2.47;;;9.20;94.30;;;;;;5011595;28;20049;-63
2023/03/28 11:26:24;;;;;;;6.03;2.70;;;9.20;94.90;;;;;;5028021;28;20052;-63
2023/03/28 11:29:23;;;;;;;9.10;2.28;;;9.20;95.00;;;;;;5017296;28;20079;-63
2023/03/28 11:32:14;;;;;;;9.25;2.50;;;9.30;94.90;;;;;;5019450;28;20036;-63
2023/03/28 11:34:46;;;;;;;6.70;2.17;;;9.40;95.70;;;;;;4982804;28;20048;-63
2023/03/28 11:37:26;;;;;;;7.20;2.70;;;9.60;95.80;;;;;;5015098;28;20372;-63
2023/03/28 11:39:56;;;;;;;6.38;1.80;;;9.80;95.70;;;;;;5010908;28;20191;-63
2023/03/28 11:42:36;;;;;;;8.20;2.35;;;9.90;94.60;;;;;;5008581;28;20492;-63
2023/03/28 11:45:26;;;;;;;6.97;2.40;;;9.80;92.80;;;;;;5009672;28;20080;-63
2023/03/28 11:48:18;;;;;;;8.57;2.42;;;9.70;92.90;;;;;;5011039;28;20045;-63
2023/03/28 11:51:10;;;;;;;4.93;2.30;;;9.80;93.10;;;;;;4997162;28;20056;-63
2023/03/28 11:53:55;;;;;;;8.32;2.53;;;9.90;93.20;;;;;;4970547;28;20052;-63
2023/03/28 11:56:43;;;;;;;6.18;2.60;;;10.10;92.70;;;;;;5032085;28;20068;-63
2023/03/28 11:59:18;;;;;;;11.77;2.80;;;10.20;91.80;;;;;;5009216;28;20033;-63
2023/03/28 12:01:48;;;;;;;4.70;2.25;;;10.20;91.20;;;;;;5030118;28;20520;-63
2023/03/28 12:04:27;;;;;;;6.97;2.40;;;10.20;91.30;;;;;;5024508;28;20057;-63
2023/03/28 12:07:07;;;;;;;4.88;2.38;;;10.40;91.80;;;;;;4990349;28;20096;-63
2023/03/28 12:09:48;;;;;;;6.38;2.60;;;10.60;91.20;;;;;;5029919;28;20122;-63
2023/03/28 12:12:23;;;;;;;5.72;2.42;;;10.70;90.60;;;;;;4997190;28;20048;-63
2023/03/28 12:15:15;;;;;;;6.00;2.35;;;10.80;89.40;;;;;;5031843;28;20150;-63
2023/03/28 12:17:48;;;;;;;8.10;2.80;;;10.90;89.30;;;;;;5004001;28;20443;-63
2023/03/28 12:20:37;;;;;;;4.47;2.50;;;11.00;89.40;;;;;;5016364;28;20386;-63
2023/03/28 12:23:11;;;;;;;7.40;2.50;;;11.10;88.90;;;;;;5029216;28;20069;-63
2023/03/28 12:25:52;;;;;;;6.50;2.95;;;11.10;86.50;;;;;;5012101;28;20041;-63
2023/03/28 12:28:41;;;;;;;6.40;2.83;;;11.10;83.80;;;;;;5014088;28;20483;-63
2023/03/28 12:31:30;;;;;;;5.88;2.75;;;10.90;83.70;;;;;;4981130;28;20056;-59
2023/03/28 12:34:11;;;;;;;4.20;2.60;;;11.00;85.80;;;;;;5007216;28;20048;-60
2023/03/28 12:36:53;;;;;;;6.40;2.53;;;11.10;86.10;;;;;;5020756;28;20049;-60
2023/03/28 12:39:37;;;;;;;7.40;2.38;;;11.10;86.50;;;;;;5019881;28;20576;-59
2023/03/28 12:42:08;;;;;;;8.30;2.75;;;11.10;86.50;;;;;;5013471;28;20152;-59
2023/03/28 12:44:42;;;;;;;7.93;2.88;;;11.20;87.40;;;;;;5029256;28;20085;-59
2023/03/28 12:47:19;;;;;;;5.88;2.45;;;11.40;87.00;;;;;;5023663;28;20043;-59
2023/03/28 12:49:59;;;;;;;12.43;3.03;;;11.40;85.50;;;;;;5014578;28;20491;-60
2023/03/28 12:52:30;;;;;;;6.97;3.05;;;11.20;84.70;;;;;;5024800;28;20484;-60
2023/03/28 12:55:03;;;;;;;4.63;2.35;;;11.20;85.70;;;;;;5022677;28;20037;-60
2023/03/28 12:57:44;;;;;;;7.18;2.80;;;11.20;84.80;;;;;;5023023;28;20056;-60
2023/03/28 13:00:38;;;;;;;5.65;2.85;;;11.30;83.50;;;;;;5028895;28;20433;-60
2023/03/28 13:03:04;;;;;;;6.35;2.30;;;11.50;84.70;;;;;;5019743;28;20045;-60
2023/03/28 13:05:48;;;;;;;6.15;2.30;;;11.70;83.80;;;;;;5024824;28;20045;-60
2023/03/28 13:08:45;;;;;;;8.07;2.67;;;11.70;76.10;;;;;;5002281;28;20073;-60
2023/03/28 13:11:38;;;;;;;6.22;2.75;;;11.50;76.50;;;;;;5017064;28;21328;-60
2023/03/28 13:14:10;;;;;;;;;;;11.50;78.70;;;;;;5008711;28;20099;-58
2023/03/28 13:16:46;;;;;;;5.40;2.63;;;11.50;80.70;;;;;;5010388;28;19927;-60